createdAt,value
2018-01-21T00:01:36.159Z,-0.80
2018-01-21T00:04:03.663Z,-0.80
2018-01-21T00:06:31.221Z,-0.70
2018-01-21T00:08:58.723Z,-0.70
2018-01-21T00:11:27.039Z,-0.70
2018-01-21T00:13:55.356Z,-0.70
2018-01-21T00:16:22.991Z,-0.70
2018-01-21T00:18:50.562Z,-0.70
2018-01-21T00:21:18.099Z,-0.70
2018-01-21T00:23:46.371Z,-0.70
2018-01-21T00:26:13.944Z,-0.70
2018-01-21T00:28:41.457Z,-0.70
2018-01-21T00:31:08.984Z,-0.70
2018-01-21T00:33:36.476Z,-0.70
2018-01-21T00:36:03.977Z,-0.70
2018-01-21T00:38:32.233Z,-0.80
2018-01-21T00:40:59.727Z,-0.80
2018-01-21T00:43:27.279Z,-0.80
2018-01-21T00:45:54.883Z,-0.80
2018-01-21T00:48:22.410Z,-0.80
2018-01-21T00:50:49.949Z,-0.80
2018-01-21T00:53:17.504Z,-0.80
2018-01-21T00:55:46.143Z,-0.80
2018-01-21T00:58:13.649Z,-0.80
2018-01-21T01:00:41.178Z,-0.80
2018-01-21T01:03:08.676Z,-0.80
2018-01-21T01:05:36.179Z,-0.80
2018-01-21T01:08:03.668Z,-0.90
2018-01-21T01:10:31.946Z,-0.90
2018-01-21T01:13:00.208Z,-1.00
2018-01-21T01:15:27.728Z,-1.00
2018-01-21T01:17:55.219Z,-1.00
2018-01-21T01:20:22.802Z,-1.00
2018-01-21T01:22:51.088Z,-0.90
2018-01-21T01:25:19.388Z,-1.00
2018-01-21T01:27:46.889Z,-1.00
2018-01-21T01:30:14.394Z,-0.90
2018-01-21T01:32:41.937Z,0.20
2018-01-21T01:35:10.216Z,-0.40
2018-01-21T01:37:39.410Z,-0.50
2018-01-21T01:40:07.664Z,-0.60
2018-01-21T01:42:35.163Z,-0.60
2018-01-21T01:45:03.080Z,-0.60
2018-01-21T01:47:30.679Z,-0.70
2018-01-21T01:49:58.950Z,-0.70
2018-01-21T01:52:27.226Z,-0.70
2018-01-21T01:54:55.487Z,-0.70
2018-01-21T01:57:23.072Z,-0.70
2018-01-21T01:59:51.324Z,-0.40
2018-01-21T02:02:18.921Z,-0.40
2018-01-21T02:04:46.409Z,0.00
2018-01-21T02:07:13.908Z,0.10
2018-01-21T02:09:42.183Z,-0.20
2018-01-21T02:12:10.449Z,-0.30
2018-01-21T02:14:38.046Z,-0.30
2018-01-21T02:17:05.554Z,-0.30
2018-01-21T02:19:33.054Z,-0.40
2018-01-21T02:22:00.620Z,-0.50
2018-01-21T02:24:28.173Z,-0.50
2018-01-21T02:26:56.564Z,-0.50
2018-01-21T02:29:24.106Z,-0.50
2018-01-21T02:31:52.551Z,-0.50
2018-01-21T02:34:20.068Z,-0.50
2018-01-21T02:36:47.669Z,-0.40
2018-01-21T02:39:15.287Z,-0.40
2018-01-21T02:41:42.809Z,-0.40
2018-01-21T02:44:11.069Z,-0.40
2018-01-21T02:46:38.568Z,-0.40
2018-01-21T02:49:06.123Z,-0.40
2018-01-21T02:51:34.420Z,-0.50
2018-01-21T02:54:01.951Z,-0.50
2018-01-21T02:56:30.208Z,-0.40
2018-01-21T02:58:57.795Z,-0.40
2018-01-21T03:01:25.357Z,-0.40
2018-01-21T03:03:52.875Z,-0.40
2018-01-21T03:06:20.485Z,-0.30
2018-01-21T03:08:47.991Z,-0.40
2018-01-21T03:11:15.480Z,-0.30
2018-01-21T03:13:43.735Z,-0.40
2018-01-21T03:16:11.248Z,-0.40
2018-01-21T03:18:38.733Z,-0.40
2018-01-21T03:21:06.227Z,-0.40
2018-01-21T03:23:34.516Z,-0.40
2018-01-21T03:26:02.116Z,-0.40
2018-01-21T03:28:29.742Z,-0.40
2018-01-21T03:30:58.024Z,-0.40
2018-01-21T03:33:25.578Z,-0.40
2018-01-21T03:35:53.835Z,-0.40
2018-01-21T03:38:22.091Z,-0.40
2018-01-21T03:40:49.622Z,-0.40
2018-01-21T03:43:17.153Z,-0.40
2018-01-21T03:45:44.647Z,-0.40
2018-01-21T03:48:12.170Z,-0.40
2018-01-21T03:50:39.738Z,-0.40
2018-01-21T03:53:07.256Z,-0.40
2018-01-21T03:55:34.856Z,-0.40
2018-01-21T03:58:02.362Z,-0.40
2018-01-21T04:00:29.871Z,-0.40
2018-01-21T04:02:57.422Z,-0.30
2018-01-21T04:05:25.694Z,-0.40
2018-01-21T04:07:53.976Z,-0.40
2018-01-21T04:10:21.532Z,-0.40
2018-01-21T04:12:49.799Z,-0.40
2018-01-21T04:15:18.060Z,-0.50
2018-01-21T04:17:45.642Z,-0.50
2018-01-21T04:20:13.936Z,-0.50
2018-01-21T04:22:41.437Z,-0.50
2018-01-21T04:25:08.946Z,-0.50
2018-01-21T04:27:36.463Z,-0.50
2018-01-21T04:30:04.055Z,-0.50
2018-01-21T04:32:32.325Z,-0.60
2018-01-21T04:35:00.717Z,-0.50
2018-01-21T04:37:28.975Z,-0.50
2018-01-21T04:39:57.231Z,-0.50
2018-01-21T04:42:24.819Z,-0.50
2018-01-21T04:44:53.079Z,-0.50
2018-01-21T04:47:20.661Z,-0.60
2018-01-21T04:49:48.931Z,-0.60
2018-01-21T04:52:17.204Z,-0.60
2018-01-21T04:54:45.463Z,-0.50
2018-01-21T04:57:12.957Z,-0.60
2018-01-21T04:59:40.504Z,-0.60
2018-01-21T05:02:08.774Z,-0.60
2018-01-21T05:04:37.043Z,-0.60
2018-01-21T05:07:04.536Z,-0.60
2018-01-21T05:09:32.018Z,-0.60
2018-01-21T05:11:59.528Z,-0.60
2018-01-21T05:14:27.785Z,-0.60
2018-01-21T05:16:56.795Z,-0.60
2018-01-21T05:19:25.082Z,-0.60
2018-01-21T05:21:54.060Z,-0.60
2018-01-21T05:24:21.637Z,-0.60
2018-01-21T05:26:49.899Z,-0.50
2018-01-21T05:29:18.150Z,-0.50
2018-01-21T05:31:45.660Z,-0.50
2018-01-21T05:34:13.205Z,-0.50
2018-01-21T05:36:40.722Z,-0.50
2018-01-21T05:39:08.212Z,-0.50
2018-01-21T05:41:36.483Z,-0.50
2018-01-21T05:44:04.743Z,-0.50
2018-01-21T05:46:32.243Z,-0.50
2018-01-21T05:48:59.749Z,-0.40
2018-01-21T05:51:27.248Z,-0.40
2018-01-21T05:53:55.512Z,-0.30
2018-01-21T05:56:23.787Z,-0.30
2018-01-21T05:58:52.050Z,-0.30
2018-01-21T06:01:19.635Z,-0.30
2018-01-21T06:03:47.903Z,-0.30
2018-01-21T06:06:16.171Z,-0.30
2018-01-21T06:08:45.440Z,-0.30
2018-01-21T06:11:12.939Z,-0.30
2018-01-21T06:13:41.218Z,-0.20
2018-01-21T06:16:09.493Z,-0.20
2018-01-21T06:18:37.758Z,-0.20
2018-01-21T06:21:05.264Z,-0.30
2018-01-21T06:23:32.765Z,-0.20
2018-01-21T06:26:00.258Z,-0.20
2018-01-21T06:28:27.819Z,-0.20
2018-01-21T06:30:55.356Z,-0.20
2018-01-21T06:33:23.657Z,-0.20
2018-01-21T06:35:51.208Z,-0.20
2018-01-21T06:38:19.464Z,-0.10
2018-01-21T06:40:48.497Z,-0.10
2018-01-21T06:43:16.012Z,-0.10
2018-01-21T06:45:43.591Z,-0.10
2018-01-21T06:48:11.859Z,-0.10
2018-01-21T06:50:40.135Z,-0.10
2018-01-21T06:53:07.631Z,-0.10
2018-01-21T06:55:35.141Z,-0.10
2018-01-21T06:58:02.730Z,0.00
2018-01-21T07:00:31.007Z,0.00
2018-01-21T07:02:58.499Z,0.00
2018-01-21T07:05:25.995Z,0.00
2018-01-21T07:07:53.609Z,0.00
2018-01-21T07:10:21.143Z,0.00
2018-01-21T07:12:49.415Z,0.00
2018-01-21T07:15:17.791Z,0.00
2018-01-21T07:17:46.088Z,0.00
2018-01-21T07:20:14.298Z,0.00
2018-01-21T07:22:41.805Z,0.00
2018-01-21T07:25:10.188Z,0.00
2018-01-21T07:27:37.681Z,0.00
2018-01-21T07:30:05.206Z,0.10
2018-01-21T07:32:32.804Z,0.10
2018-01-21T07:35:00.323Z,0.10
2018-01-21T07:37:28.591Z,0.10
2018-01-21T07:39:56.876Z,0.00
2018-01-21T07:42:30.260Z,0.00
2018-01-21T07:44:58.523Z,0.10
2018-01-21T07:47:26.117Z,0.10
2018-01-21T07:49:53.631Z,0.20
2018-01-21T07:52:21.135Z,0.20
2018-01-21T07:54:48.687Z,0.20
2018-01-21T07:57:16.223Z,0.20
2018-01-21T07:59:43.757Z,0.30
2018-01-21T08:02:11.256Z,0.30
2018-01-21T08:04:38.817Z,0.30
2018-01-21T08:07:07.091Z,0.40
2018-01-21T08:09:35.400Z,0.40
2018-01-21T08:12:02.927Z,0.40
2018-01-21T08:14:30.505Z,0.40
2018-01-21T08:16:58.047Z,0.40
2018-01-21T08:19:26.316Z,0.50
2018-01-21T08:21:53.810Z,0.50
2018-01-21T08:24:21.308Z,0.50
2018-01-21T08:26:48.856Z,0.40
2018-01-21T08:29:16.390Z,0.50
2018-01-21T08:31:43.924Z,0.40
2018-01-21T08:34:17.904Z,0.50
2018-01-21T08:36:50.980Z,0.50
2018-01-21T08:39:24.263Z,0.50
2018-01-21T08:41:54.925Z,0.50
2018-01-21T08:44:22.449Z,0.50
2018-01-21T08:46:49.976Z,0.60
2018-01-21T08:49:17.498Z,0.60
2018-01-21T08:51:44.995Z,0.50
2018-01-21T08:54:12.517Z,0.50
2018-01-21T08:56:40.011Z,0.60
2018-01-21T08:59:07.516Z,0.60
2018-01-21T09:01:35.880Z,0.50
2018-01-21T09:04:03.403Z,0.60
2018-01-21T09:06:30.900Z,0.60
2018-01-21T09:08:58.394Z,0.60
2018-01-21T09:11:25.972Z,0.60
2018-01-21T09:13:54.228Z,0.70
2018-01-21T09:16:21.723Z,0.70
2018-01-21T09:18:49.250Z,0.70
2018-01-21T09:21:17.549Z,0.70
2018-01-21T09:23:45.103Z,0.70
2018-01-21T09:26:13.375Z,0.80
2018-01-21T09:28:40.896Z,0.80
2018-01-21T09:31:08.407Z,0.80
2018-01-21T09:33:35.971Z,0.90
2018-01-21T09:36:03.492Z,0.90
2018-01-21T09:38:31.076Z,1.00
2018-01-21T09:40:58.653Z,1.00
2018-01-21T09:43:26.178Z,1.00
2018-01-21T09:45:54.447Z,1.00
2018-01-21T09:48:22.035Z,1.00
2018-01-21T09:50:49.619Z,2.30
2018-01-21T09:53:17.220Z,1.90
2018-01-21T09:55:44.724Z,1.60
2018-01-21T09:58:12.255Z,1.40
2018-01-21T10:00:40.535Z,1.30
2018-01-21T10:03:08.951Z,1.20
2018-01-21T10:05:36.504Z,1.20
2018-01-21T10:08:04.098Z,1.20
2018-01-21T10:10:31.629Z,1.20
2018-01-21T10:12:59.162Z,1.20
2018-01-21T10:15:27.440Z,1.20
2018-01-21T10:17:55.732Z,1.20
2018-01-21T10:20:23.280Z,1.20
2018-01-21T10:22:50.778Z,1.20
2018-01-21T10:25:18.300Z,1.20
2018-01-21T10:27:45.789Z,1.20
2018-01-21T10:30:13.291Z,1.20
2018-01-21T10:32:41.591Z,1.20
2018-01-21T10:35:09.102Z,1.20
2018-01-21T10:37:36.607Z,1.20
2018-01-21T10:40:04.097Z,1.20
2018-01-21T10:42:31.599Z,1.10
2018-01-21T10:44:59.103Z,1.20
2018-01-21T10:47:26.706Z,1.20
2018-01-21T10:49:54.304Z,1.20
2018-01-21T10:52:21.816Z,1.20
2018-01-21T10:54:49.320Z,1.10
2018-01-21T10:57:16.840Z,1.10
2018-01-21T10:59:44.426Z,1.10
2018-01-21T11:02:12.719Z,1.30
2018-01-21T11:04:40.222Z,1.20
2018-01-21T11:07:07.717Z,1.30
2018-01-21T11:09:35.993Z,1.40
2018-01-21T11:12:04.263Z,1.50
2018-01-21T11:14:32.524Z,1.60
2018-01-21T11:17:00.085Z,1.60
2018-01-21T11:19:27.680Z,1.70
2018-01-21T11:21:55.198Z,1.80
2018-01-21T11:24:22.758Z,1.80
2018-01-21T11:26:50.256Z,2.00
2018-01-21T11:29:18.789Z,1.90
2018-01-21T11:31:46.426Z,2.00
2018-01-21T11:34:14.076Z,1.90
2018-01-21T11:36:41.725Z,2.00
2018-01-21T11:39:09.250Z,2.00
2018-01-21T11:41:36.763Z,1.90
2018-01-21T11:44:04.258Z,1.90
2018-01-21T11:46:31.860Z,1.90
2018-01-21T11:48:59.356Z,1.90
2018-01-21T11:51:26.871Z,1.90
2018-01-21T11:53:55.128Z,1.80
2018-01-21T11:56:22.642Z,1.80
2018-01-21T11:58:50.143Z,1.80
2018-01-21T12:01:17.655Z,1.80
2018-01-21T12:03:45.160Z,1.70
2018-01-21T12:06:12.743Z,1.70
2018-01-21T12:08:41.039Z,1.60
2018-01-21T12:11:08.589Z,1.60
2018-01-21T12:13:36.075Z,1.70
2018-01-21T12:16:03.590Z,1.60
2018-01-21T12:18:31.844Z,1.70
2018-01-21T12:20:59.434Z,1.70
2018-01-21T12:23:27.727Z,1.80
2018-01-21T12:25:55.856Z,1.80
2018-01-21T12:28:23.349Z,1.70
2018-01-21T12:30:50.867Z,1.60
2018-01-21T12:33:18.359Z,1.50
2018-01-21T12:35:46.644Z,1.60
2018-01-21T12:38:14.129Z,1.60
2018-01-21T12:40:41.629Z,1.60
2018-01-21T12:43:09.216Z,1.60
2018-01-21T12:45:38.384Z,1.80
2018-01-21T12:48:05.872Z,1.80
2018-01-21T12:50:33.440Z,1.90
2018-01-21T12:53:01.013Z,1.90
2018-01-21T12:55:28.515Z,2.00
2018-01-21T12:57:56.011Z,2.00
2018-01-21T13:00:23.524Z,2.10
2018-01-21T13:02:51.020Z,2.10
2018-01-21T13:05:19.307Z,1.80
2018-01-21T13:07:46.806Z,1.80
2018-01-21T13:10:14.324Z,1.70
2018-01-21T13:12:41.855Z,1.60
2018-01-21T13:15:09.338Z,1.70
2018-01-21T13:17:36.848Z,1.70
2018-01-21T13:20:04.368Z,1.80
2018-01-21T13:22:32.011Z,2.80
2018-01-21T13:24:59.653Z,2.40
2018-01-21T13:27:27.198Z,2.10
2018-01-21T13:29:54.799Z,2.00
2018-01-21T13:32:22.328Z,1.90
2018-01-21T13:34:51.362Z,1.80
2018-01-21T13:37:18.865Z,1.80
2018-01-21T13:39:46.483Z,1.70
2018-01-21T13:42:13.983Z,1.60
2018-01-21T13:44:41.475Z,1.50
2018-01-21T13:47:09.810Z,1.50
2018-01-21T13:49:37.273Z,1.50
2018-01-21T13:52:04.930Z,1.50
2018-01-21T13:54:32.439Z,1.50
2018-01-21T13:57:00.713Z,1.50
2018-01-21T13:59:29.034Z,1.50
2018-01-21T14:01:56.555Z,1.50
2018-01-21T14:04:24.061Z,1.50
2018-01-21T14:06:51.630Z,1.50
2018-01-21T14:09:19.268Z,1.50
2018-01-21T14:11:46.771Z,1.50
2018-01-21T14:14:15.046Z,1.50
2018-01-21T14:16:42.591Z,1.50
2018-01-21T14:19:10.083Z,1.40
2018-01-21T14:21:38.350Z,1.40
2018-01-21T14:24:06.608Z,1.40
2018-01-21T14:26:34.232Z,1.40
2018-01-21T14:29:01.795Z,1.40
2018-01-21T14:31:29.326Z,1.40
2018-01-21T14:33:56.820Z,1.40
2018-01-21T14:36:24.399Z,1.50
2018-01-21T14:38:51.906Z,1.50
2018-01-21T14:41:19.422Z,2.10
2018-01-21T14:43:47.739Z,2.20
2018-01-21T14:46:15.250Z,2.20
2018-01-21T14:48:42.738Z,2.00
2018-01-21T14:51:11.024Z,1.70
2018-01-21T14:53:39.388Z,1.70
2018-01-21T14:56:07.650Z,1.60
2018-01-21T14:58:35.151Z,1.50
2018-01-21T15:01:02.697Z,1.50
2018-01-21T15:03:31.154Z,1.50
2018-01-21T15:05:59.439Z,1.50
2018-01-21T15:08:27.724Z,1.40
2018-01-21T15:10:56.078Z,1.40
2018-01-21T15:13:23.601Z,1.40
2018-01-21T15:15:51.104Z,1.40
2018-01-21T15:18:18.594Z,1.40
2018-01-21T15:20:46.110Z,1.40
2018-01-21T15:23:13.609Z,1.40
2018-01-21T15:25:41.102Z,1.40
2018-01-21T15:28:08.592Z,1.40
2018-01-21T15:30:36.092Z,1.40
2018-01-21T15:33:03.614Z,1.40
2018-01-21T15:35:31.131Z,1.40
2018-01-21T15:37:58.675Z,1.30
2018-01-21T15:40:26.178Z,1.30
2018-01-21T15:42:53.683Z,1.30
2018-01-21T15:45:21.237Z,1.30
2018-01-21T15:47:48.712Z,1.30
2018-01-21T15:50:16.229Z,1.30
2018-01-21T15:52:44.532Z,1.30
2018-01-21T15:55:12.023Z,1.30
2018-01-21T15:57:39.575Z,1.30
2018-01-21T16:00:07.096Z,1.30
2018-01-21T16:02:35.439Z,1.20
2018-01-21T16:05:02.908Z,1.20
2018-01-21T16:07:31.180Z,1.20
2018-01-21T16:09:58.758Z,1.20
2018-01-21T16:12:26.221Z,1.30
2018-01-21T16:14:54.484Z,1.70
2018-01-21T16:17:22.018Z,1.60
2018-01-21T16:19:53.344Z,1.60
2018-01-21T16:22:20.868Z,1.50
2018-01-21T16:24:48.364Z,1.40
2018-01-21T16:27:15.948Z,1.40
2018-01-21T16:29:44.245Z,1.30
2018-01-21T16:32:11.748Z,1.30
2018-01-21T16:34:39.286Z,1.30
2018-01-21T16:37:06.945Z,1.20
2018-01-21T16:39:35.215Z,1.20
2018-01-21T16:42:03.492Z,1.20
2018-01-21T16:44:31.761Z,1.20
2018-01-21T16:47:00.044Z,1.20
2018-01-21T16:49:27.588Z,1.20
2018-01-21T16:51:55.789Z,1.20
2018-01-21T16:54:23.471Z,1.20
2018-01-21T16:56:51.011Z,1.20
2018-01-21T16:59:18.534Z,1.20
2018-01-21T17:01:46.054Z,1.20
2018-01-21T17:04:13.554Z,1.20
2018-01-21T17:06:41.839Z,1.20
2018-01-21T17:09:10.148Z,1.20
2018-01-21T17:11:38.042Z,1.20
2018-01-21T17:14:05.546Z,1.20
2018-01-21T17:16:33.864Z,1.20
2018-01-21T17:19:01.374Z,1.20
2018-01-21T17:21:29.670Z,1.30
2018-01-21T17:23:58.050Z,1.30
2018-01-21T17:26:26.326Z,1.30
2018-01-21T17:28:53.981Z,1.20
2018-01-21T17:31:21.518Z,1.60
2018-01-21T17:33:49.007Z,1.50
2018-01-21T17:36:17.323Z,1.40
2018-01-21T17:38:44.845Z,1.40
2018-01-21T17:41:12.368Z,1.40
2018-01-21T17:43:39.982Z,1.40
2018-01-21T17:46:07.508Z,1.60
2018-01-21T17:48:35.763Z,1.60
2018-01-21T17:51:03.297Z,1.60
2018-01-21T17:53:30.795Z,1.50
2018-01-21T17:55:59.164Z,1.50
2018-01-21T17:58:27.445Z,1.60
2018-01-21T18:00:55.712Z,1.60
2018-01-21T18:03:23.241Z,1.60
2018-01-21T18:05:50.969Z,1.70
2018-01-21T18:08:19.234Z,2.10
2018-01-21T18:10:47.512Z,1.90
2018-01-21T18:13:15.764Z,1.90
2018-01-21T18:15:43.270Z,1.90
2018-01-21T18:18:10.767Z,1.80
2018-01-21T18:20:38.284Z,1.70
2018-01-21T18:23:05.777Z,1.70
2018-01-21T18:25:33.627Z,1.60
2018-01-21T18:28:01.135Z,1.50
2018-01-21T18:30:29.520Z,1.50
2018-01-21T18:32:57.804Z,1.40
2018-01-21T18:35:26.091Z,1.30
2018-01-21T18:37:53.592Z,1.30
2018-01-21T18:40:21.161Z,1.40
2018-01-21T18:42:48.660Z,1.40
2018-01-21T18:45:16.995Z,1.40
2018-01-21T18:47:44.488Z,1.40
2018-01-21T18:50:12.785Z,1.30
2018-01-21T18:52:40.440Z,1.30
2018-01-21T18:55:08.002Z,1.30
2018-01-21T18:57:35.495Z,1.30
2018-01-21T19:00:02.994Z,1.30
2018-01-21T19:02:32.009Z,1.30
2018-01-21T19:05:00.648Z,1.30
2018-01-21T19:07:28.260Z,1.30
2018-01-21T19:09:56.519Z,1.30
2018-01-21T19:12:24.921Z,1.30
2018-01-21T19:14:52.522Z,1.30
2018-01-21T19:17:20.059Z,1.20
2018-01-21T19:19:47.583Z,1.30
2018-01-21T19:22:16.229Z,1.30
2018-01-21T19:24:43.739Z,1.20
2018-01-21T19:27:11.247Z,1.30
2018-01-21T19:29:38.763Z,1.30
2018-01-21T19:32:06.275Z,1.20
2018-01-21T19:34:33.804Z,1.20
2018-01-21T19:37:01.320Z,1.20
2018-01-21T19:39:38.709Z,1.20
2018-01-21T19:42:21.849Z,1.20
2018-01-21T19:44:49.438Z,1.20
2018-01-21T19:47:16.946Z,1.20
2018-01-21T19:49:45.322Z,1.10
2018-01-21T19:52:12.872Z,1.10
2018-01-21T19:54:40.395Z,1.10
2018-01-21T19:57:07.936Z,1.10
2018-01-21T19:59:35.457Z,1.10
2018-01-21T20:02:02.966Z,1.10
2018-01-21T20:04:30.513Z,1.10
2018-01-21T20:06:58.018Z,1.10
2018-01-21T20:09:25.548Z,1.10
2018-01-21T20:11:53.065Z,1.10
2018-01-21T20:14:21.356Z,1.10
2018-01-21T20:16:48.864Z,1.10
2018-01-21T20:19:16.351Z,1.10
2018-01-21T20:21:44.641Z,1.10
2018-01-21T20:24:12.900Z,1.10
2018-01-21T20:26:41.208Z,1.10
2018-01-21T20:29:08.765Z,1.10
2018-01-21T20:31:37.006Z,1.10
2018-01-21T20:34:04.519Z,1.10
2018-01-21T20:36:32.024Z,1.10
2018-01-21T20:39:00.334Z,1.10
2018-01-21T20:41:27.823Z,1.10
2018-01-21T20:43:55.315Z,1.20
2018-01-21T20:46:22.932Z,1.10
2018-01-21T20:48:50.419Z,1.90
2018-01-21T20:51:23.573Z,1.60
2018-01-21T20:53:56.833Z,1.50
2018-01-21T20:56:25.115Z,1.30
2018-01-21T20:58:53.383Z,1.30
2018-01-21T21:01:21.670Z,1.30
2018-01-21T21:03:49.932Z,1.20
2018-01-21T21:06:18.212Z,1.10
2018-01-21T21:08:46.474Z,1.10
2018-01-21T21:11:13.993Z,1.10
2018-01-21T21:13:41.507Z,1.10
2018-01-21T21:16:09.770Z,1.10
2018-01-21T21:18:37.267Z,1.10
2018-01-21T21:21:04.784Z,1.10
2018-01-21T21:23:33.071Z,1.10
2018-01-21T21:26:00.645Z,1.10
2018-01-21T21:28:28.954Z,1.10
2018-01-21T21:30:56.455Z,1.00
2018-01-21T21:33:23.957Z,1.10
2018-01-21T21:35:51.507Z,1.10
2018-01-21T21:38:19.753Z,1.00
2018-01-21T21:40:47.248Z,1.00
2018-01-21T21:43:14.825Z,1.00
2018-01-21T21:45:42.344Z,1.00
2018-01-21T21:48:10.633Z,1.00
2018-01-21T21:50:38.896Z,1.00
2018-01-21T21:53:06.387Z,1.00
2018-01-21T21:55:33.891Z,1.00
2018-01-21T21:58:01.488Z,1.00
2018-01-21T22:00:29.757Z,1.00
2018-01-21T22:02:58.051Z,1.00
2018-01-21T22:05:25.567Z,0.90
2018-01-21T22:07:53.989Z,1.00
2018-01-21T22:10:21.494Z,1.00
2018-01-21T22:12:48.980Z,1.00
2018-01-21T22:15:16.564Z,0.90
2018-01-21T22:17:44.050Z,0.90
2018-01-21T22:20:11.551Z,0.90
2018-01-21T22:22:39.033Z,0.90
2018-01-21T22:25:06.535Z,0.90
2018-01-21T22:27:34.090Z,0.90
2018-01-21T22:30:02.419Z,0.90
2018-01-21T22:32:30.712Z,0.90
2018-01-21T22:34:58.212Z,0.90
2018-01-21T22:37:25.717Z,0.90
2018-01-21T22:39:53.995Z,0.90
2018-01-21T22:42:22.272Z,0.90
2018-01-21T22:44:50.523Z,0.90
2018-01-21T22:47:18.824Z,0.90
2018-01-21T22:52:20.897Z,0.80
2018-01-21T22:54:49.184Z,0.90
2018-01-21T22:57:17.452Z,0.90
2018-01-21T22:59:45.701Z,0.90
2018-01-21T23:02:13.200Z,0.90
2018-01-21T23:04:41.456Z,0.90
2018-01-21T23:07:10.098Z,0.90
2018-01-21T23:09:37.587Z,0.90
2018-01-21T23:12:05.851Z,0.80
2018-01-21T23:14:33.339Z,0.80
2018-01-21T23:17:01.635Z,0.80
2018-01-21T23:19:29.123Z,0.80
2018-01-21T23:21:56.654Z,0.80
2018-01-21T23:24:24.142Z,0.80
2018-01-21T23:26:51.659Z,0.80
2018-01-21T23:29:19.927Z,0.70
2018-01-21T23:31:48.193Z,0.70
2018-01-21T23:34:15.726Z,0.70
2018-01-21T23:36:43.331Z,0.80
2018-01-21T23:39:10.819Z,0.80
2018-01-21T23:41:38.348Z,0.80
2018-01-21T23:44:06.601Z,0.70
2018-01-21T23:46:34.108Z,0.70
2018-01-21T23:49:01.594Z,0.70
2018-01-21T23:51:29.212Z,0.70
2018-01-21T23:53:56.694Z,0.70
2018-01-21T23:56:24.214Z,0.70
2018-01-21T23:58:52.486Z,0.60
